createdAt,value
2022-09-15T00:01:02.049Z,100.00
2022-09-15T00:04:05.790Z,100.00
2022-09-15T00:07:08.473Z,100.00
2022-09-15T00:10:11.825Z,100.00
2022-09-15T00:13:15.724Z,100.00
2022-09-15T00:16:20.521Z,100.00
2022-09-15T00:19:23.522Z,100.00
2022-09-15T00:22:28.278Z,100.00
2022-09-15T00:25:31.152Z,100.00
2022-09-15T00:28:34.837Z,100.00
2022-09-15T00:31:37.623Z,100.00
2022-09-15T00:34:40.568Z,100.00
2022-09-15T00:37:43.347Z,100.00
2022-09-15T00:40:53.302Z,100.00
2022-09-15T00:43:57.486Z,100.00
2022-09-15T00:47:18.767Z,100.00
2022-09-15T00:50:23.147Z,100.00
2022-09-15T00:53:27.503Z,100.00
2022-09-15T00:56:33.281Z,100.00
2022-09-15T00:59:40.156Z,100.00
2022-09-15T01:02:44.767Z,100.00
2022-09-15T01:05:54.610Z,100.00
2022-09-15T01:09:14.353Z,100.00
2022-09-15T01:12:18.520Z,100.00
2022-09-15T01:15:25.855Z,100.00
2022-09-15T01:18:36.952Z,100.00
2022-09-15T01:21:58.777Z,100.00
2022-09-15T01:25:10.648Z,100.00
2022-09-15T01:28:36.031Z,100.00
2022-09-15T01:32:13.390Z,100.00
2022-09-15T01:35:22.415Z,100.00
2022-09-15T01:39:07.147Z,100.00
2022-09-15T01:42:15.191Z,100.00
2022-09-15T01:45:23.781Z,100.00
2022-09-15T01:48:29.796Z,100.00
2022-09-15T01:51:34.605Z,100.00
2022-09-15T01:54:45.881Z,100.00
2022-09-15T01:57:50.549Z,100.00
2022-09-15T02:01:03.796Z,100.00
2022-09-15T02:04:15.801Z,100.00
2022-09-15T02:07:35.618Z,100.00
2022-09-15T02:10:38.404Z,100.00
2022-09-15T02:14:11.442Z,100.00
2022-09-15T02:17:18.885Z,100.00
2022-09-15T02:20:34.317Z,100.00
2022-09-15T02:23:43.729Z,100.00
2022-09-15T02:26:49.727Z,100.00
2022-09-15T02:29:59.048Z,100.00
2022-09-15T02:33:09.064Z,100.00
2022-09-15T02:36:17.183Z,100.00
2022-09-15T02:39:26.182Z,100.00
2022-09-15T02:42:33.019Z,100.00
2022-09-15T02:45:36.237Z,100.00
2022-09-15T02:48:39.493Z,100.00
2022-09-15T02:51:42.491Z,100.00
2022-09-15T02:54:46.022Z,100.00
2022-09-15T02:57:48.832Z,100.00
2022-09-15T03:00:54.223Z,100.00
2022-09-15T03:03:57.352Z,100.00
2022-09-15T03:07:00.511Z,100.00
2022-09-15T03:10:05.473Z,100.00
2022-09-15T03:13:08.687Z,100.00
2022-09-15T03:16:14.553Z,100.00
2022-09-15T03:19:17.552Z,100.00
2022-09-15T03:22:20.426Z,100.00
2022-09-15T03:25:26.779Z,100.00
2022-09-15T03:28:30.193Z,100.00
2022-09-15T03:31:33.280Z,100.00
2022-09-15T03:34:36.245Z,100.00
2022-09-15T03:37:39.479Z,100.00
2022-09-15T03:40:43.308Z,100.00
2022-09-15T03:43:46.484Z,100.00
2022-09-15T03:46:49.504Z,100.00
2022-09-15T03:49:53.177Z,100.00
2022-09-15T03:52:58.803Z,100.00
2022-09-15T03:56:15.347Z,100.00
2022-09-15T03:59:19.311Z,100.00
2022-09-15T04:02:22.345Z,100.00
2022-09-15T04:05:25.874Z,100.00
2022-09-15T04:08:28.621Z,100.00
2022-09-15T04:11:32.633Z,100.00
2022-09-15T04:14:35.518Z,100.00
2022-09-15T04:17:38.419Z,100.00
2022-09-15T04:20:41.645Z,100.00
2022-09-15T04:23:45.911Z,100.00
2022-09-15T04:26:49.017Z,100.00
2022-09-15T04:29:52.932Z,100.00
2022-09-15T04:32:55.820Z,100.00
2022-09-15T04:36:04.249Z,100.00
2022-09-15T04:39:07.010Z,100.00
2022-09-15T04:42:10.212Z,100.00
2022-09-15T04:45:13.140Z,100.00
2022-09-15T04:48:16.167Z,100.00
2022-09-15T04:51:21.668Z,100.00
2022-09-15T04:54:24.638Z,100.00
2022-09-15T04:57:27.271Z,100.00
2022-09-15T05:00:32.135Z,100.00
2022-09-15T05:03:37.162Z,100.00
2022-09-15T05:06:40.201Z,100.00
2022-09-15T05:09:43.066Z,100.00
2022-09-15T05:12:46.526Z,100.00
2022-09-15T05:15:49.534Z,100.00
2022-09-15T05:18:55.155Z,100.00
2022-09-15T05:21:58.008Z,100.00
2022-09-15T05:25:01.150Z,100.00
2022-09-15T05:28:03.981Z,100.00
2022-09-15T05:31:13.119Z,100.00
2022-09-15T05:34:16.093Z,100.00
2022-09-15T05:37:19.890Z,100.00
2022-09-15T05:40:22.978Z,100.00
2022-09-15T05:43:25.906Z,100.00
2022-09-15T05:46:31.949Z,100.00
2022-09-15T05:49:35.345Z,100.00
2022-09-15T05:52:38.209Z,100.00
2022-09-15T05:55:41.548Z,100.00
2022-09-15T05:58:46.954Z,100.00
2022-09-15T06:01:49.918Z,100.00
2022-09-15T06:04:52.999Z,100.00
2022-09-15T06:07:56.907Z,100.00
2022-09-15T06:11:08.338Z,100.00
2022-09-15T06:14:13.398Z,100.00
2022-09-15T06:17:20.677Z,100.00
2022-09-15T06:20:25.482Z,100.00
2022-09-15T06:23:28.636Z,100.00
2022-09-15T06:26:31.539Z,100.00
2022-09-15T06:29:35.930Z,100.00
2022-09-15T06:32:39.113Z,100.00
2022-09-15T06:35:42.403Z,98.15
2022-09-15T06:38:45.826Z,97.65
2022-09-15T06:42:05.911Z,96.18
2022-09-15T06:45:09.388Z,94.90
2022-09-15T06:48:23.918Z,94.26
2022-09-15T06:51:35.376Z,93.69
2022-09-15T06:54:38.700Z,94.55
2022-09-15T06:57:41.333Z,94.25
2022-09-15T07:00:44.610Z,94.95
2022-09-15T07:03:47.487Z,97.44
2022-09-15T07:06:51.017Z,96.90
2022-09-15T07:09:53.762Z,97.97
2022-09-15T07:12:56.858Z,96.83
2022-09-15T07:16:02.819Z,95.98
2022-09-15T07:19:06.245Z,93.99
2022-09-15T07:22:08.839Z,93.82
2022-09-15T07:25:12.049Z,92.08
2022-09-15T07:28:15.815Z,92.15
2022-09-15T07:31:21.054Z,89.08
2022-09-15T07:34:23.774Z,83.22
2022-09-15T07:37:26.701Z,80.58
2022-09-15T07:40:29.751Z,75.48
2022-09-15T07:43:33.035Z,70.50
2022-09-15T07:46:36.426Z,67.23
2022-09-15T07:49:39.793Z,66.90
2022-09-15T07:52:42.635Z,68.04
2022-09-15T07:55:45.559Z,70.80
2022-09-15T07:58:49.239Z,74.30
2022-09-15T08:01:52.445Z,69.27
2022-09-15T08:04:56.526Z,67.22
2022-09-15T08:07:59.378Z,68.36
2022-09-15T08:11:06.957Z,69.36
2022-09-15T08:14:09.821Z,68.05
2022-09-15T08:17:12.741Z,68.50
2022-09-15T08:20:15.645Z,72.48
2022-09-15T08:23:18.778Z,74.37
2022-09-15T08:26:21.807Z,73.19
2022-09-15T08:29:24.836Z,75.85
2022-09-15T08:32:27.564Z,72.66
2022-09-15T08:35:32.430Z,67.23
2022-09-15T08:38:35.346Z,63.55
2022-09-15T08:41:43.716Z,60.82
2022-09-15T08:44:55.608Z,55.15
2022-09-15T08:48:04.394Z,54.42
2022-09-15T08:51:15.000Z,53.71
2022-09-15T08:54:24.641Z,54.02
2022-09-15T08:57:27.794Z,58.92
2022-09-15T09:00:32.661Z,60.34
2022-09-15T09:04:07.118Z,61.29
2022-09-15T09:07:35.035Z,61.00
2022-09-15T09:11:02.944Z,57.58
2022-09-15T09:14:24.640Z,57.92
2022-09-15T09:17:27.316Z,56.82
2022-09-15T09:20:45.889Z,57.31
2022-09-15T09:24:16.931Z,55.69
2022-09-15T09:27:24.881Z,56.71
2022-09-15T09:30:32.810Z,57.95
2022-09-15T09:33:48.062Z,56.74
2022-09-15T09:37:09.125Z,56.40
2022-09-15T09:40:14.721Z,56.40
2022-09-15T09:43:17.954Z,54.62
2022-09-15T09:46:23.295Z,52.89
2022-09-15T09:49:34.290Z,52.94
2022-09-15T09:52:39.447Z,53.32
2022-09-15T09:55:42.338Z,53.22
2022-09-15T09:58:46.111Z,53.68
2022-09-15T10:02:10.899Z,53.79
2022-09-15T10:05:19.593Z,52.65
2022-09-15T10:08:22.270Z,53.27
2022-09-15T10:11:46.715Z,54.35
2022-09-15T10:14:53.316Z,54.18
2022-09-15T10:17:57.073Z,53.97
2022-09-15T10:21:02.558Z,53.76
2022-09-15T10:24:34.676Z,53.03
2022-09-15T10:27:37.436Z,51.91
2022-09-15T10:31:01.910Z,52.26
2022-09-15T10:34:30.423Z,51.83
2022-09-15T10:37:48.628Z,52.19
2022-09-15T10:41:31.780Z,51.57
2022-09-15T10:44:52.871Z,51.40
2022-09-15T10:48:16.837Z,52.41
2022-09-15T10:51:57.872Z,51.41
2022-09-15T10:55:36.757Z,52.07
2022-09-15T10:59:03.800Z,50.49
2022-09-15T11:02:32.696Z,50.72
2022-09-15T11:06:13.482Z,50.83
2022-09-15T11:09:25.993Z,50.06
2022-09-15T11:12:40.332Z,51.22
2022-09-15T11:15:56.753Z,52.17
2022-09-15T11:19:18.036Z,52.61
2022-09-15T11:22:30.097Z,54.58
2022-09-15T11:25:40.570Z,56.13
2022-09-15T11:28:50.315Z,56.59
2022-09-15T11:35:45.065Z,57.14
2022-09-15T11:39:17.890Z,58.92
2022-09-15T11:42:32.169Z,60.58
2022-09-15T11:45:41.641Z,61.45
2022-09-15T11:49:16.908Z,62.43
2022-09-15T11:53:00.338Z,64.16
2022-09-15T11:56:24.392Z,66.38
2022-09-15T11:59:46.911Z,68.07
2022-09-15T12:03:22.338Z,67.27
2022-09-15T12:06:35.083Z,65.67
2022-09-15T12:09:38.705Z,65.59
2022-09-15T12:12:44.773Z,65.90
2022-09-15T12:15:49.703Z,68.23
2022-09-15T12:19:19.040Z,69.97
2022-09-15T12:22:43.480Z,72.29
2022-09-15T12:26:05.031Z,74.09
2022-09-15T12:29:26.200Z,75.29
2022-09-15T12:32:34.994Z,76.77
2022-09-15T12:35:38.228Z,78.77
2022-09-15T12:38:48.200Z,82.04
2022-09-15T12:41:52.905Z,86.69
2022-09-15T12:45:02.045Z,92.54
2022-09-15T12:48:18.760Z,100.00
2022-09-15T12:51:26.234Z,100.00
2022-09-15T12:54:33.163Z,100.00
2022-09-15T12:57:37.925Z,100.00
2022-09-15T13:01:00.603Z,100.00
2022-09-15T13:04:06.226Z,100.00
2022-09-15T13:07:15.448Z,100.00
2022-09-15T13:10:27.797Z,100.00
2022-09-15T13:13:45.427Z,100.00
2022-09-15T13:16:54.165Z,100.00
2022-09-15T13:20:02.026Z,100.00
2022-09-15T13:23:09.156Z,100.00
2022-09-15T13:26:17.824Z,100.00
2022-09-15T13:29:23.037Z,100.00
2022-09-15T13:32:44.427Z,100.00
2022-09-15T13:36:08.487Z,100.00
2022-09-15T13:39:45.549Z,100.00
2022-09-15T13:43:10.957Z,100.00
2022-09-15T13:46:37.691Z,100.00
2022-09-15T13:50:25.237Z,100.00
2022-09-15T13:53:35.096Z,100.00
2022-09-15T13:56:39.958Z,100.00
2022-09-15T13:59:42.524Z,100.00
2022-09-15T14:05:56.706Z,100.00
2022-09-15T14:09:06.223Z,100.00
2022-09-15T14:12:12.125Z,100.00
2022-09-15T14:15:21.020Z,100.00
2022-09-15T14:18:23.829Z,100.00
2022-09-15T14:21:32.202Z,100.00
2022-09-15T14:24:40.220Z,100.00
2022-09-15T14:27:45.618Z,100.00
2022-09-15T14:30:48.788Z,100.00
2022-09-15T14:33:51.434Z,100.00
2022-09-15T14:37:00.715Z,100.00
2022-09-15T14:40:19.372Z,100.00
2022-09-15T14:43:25.889Z,100.00
2022-09-15T14:46:36.731Z,100.00
2022-09-15T14:49:39.504Z,100.00
2022-09-15T14:53:19.205Z,100.00
2022-09-15T14:56:30.454Z,100.00
2022-09-15T14:59:40.494Z,100.00
2022-09-15T15:03:06.783Z,100.00
2022-09-15T15:06:29.354Z,100.00
2022-09-15T15:09:39.346Z,100.00
2022-09-15T15:12:50.371Z,100.00
2022-09-15T15:15:53.627Z,100.00
2022-09-15T15:18:57.225Z,100.00
2022-09-15T15:22:12.000Z,100.00
2022-09-15T15:25:20.316Z,100.00
2022-09-15T15:28:37.041Z,100.00
2022-09-15T15:31:40.370Z,100.00
2022-09-15T15:35:16.031Z,100.00
2022-09-15T15:38:25.272Z,100.00
2022-09-15T15:41:31.156Z,100.00
2022-09-15T15:44:33.624Z,100.00
2022-09-15T15:47:37.140Z,100.00
2022-09-15T15:50:40.000Z,100.00
2022-09-15T15:53:42.771Z,100.00
2022-09-15T15:56:45.493Z,100.00
2022-09-15T15:59:48.295Z,100.00
2022-09-15T16:02:51.694Z,100.00
2022-09-15T16:05:58.437Z,100.00
2022-09-15T16:09:02.164Z,100.00
2022-09-15T16:12:05.188Z,100.00
2022-09-15T16:15:16.984Z,100.00
2022-09-15T16:18:20.020Z,100.00
2022-09-15T16:21:29.831Z,100.00
2022-09-15T16:24:33.045Z,100.00
2022-09-15T16:27:35.414Z,100.00
2022-09-15T16:30:38.345Z,100.00
2022-09-15T16:33:42.644Z,100.00
2022-09-15T16:36:45.786Z,100.00
2022-09-15T16:39:48.275Z,100.00
2022-09-15T16:42:51.428Z,100.00
2022-09-15T16:45:53.958Z,100.00
2022-09-15T16:48:57.261Z,100.00
2022-09-15T16:51:59.727Z,100.00
2022-09-15T16:55:02.483Z,100.00
2022-09-15T16:58:06.189Z,100.00
2022-09-15T17:01:20.675Z,100.00
2022-09-15T17:04:23.068Z,100.00
2022-09-15T17:07:25.867Z,100.00
2022-09-15T17:10:28.441Z,100.00
2022-09-15T17:13:33.799Z,100.00
2022-09-15T17:16:38.279Z,100.00
2022-09-15T17:19:41.208Z,100.00
2022-09-15T17:22:43.661Z,100.00
2022-09-15T17:25:52.723Z,100.00
2022-09-15T17:28:56.340Z,100.00
2022-09-15T17:31:59.061Z,100.00
2022-09-15T17:35:01.894Z,100.00
2022-09-15T17:38:06.092Z,100.00
2022-09-15T17:41:15.371Z,100.00
2022-09-15T17:44:18.207Z,100.00
2022-09-15T17:47:20.615Z,100.00
2022-09-15T17:50:25.931Z,100.00
2022-09-15T17:53:28.739Z,100.00
2022-09-15T17:56:31.529Z,100.00
2022-09-15T17:59:34.031Z,100.00
2022-09-15T18:02:38.928Z,100.00
2022-09-15T18:05:41.562Z,100.00
2022-09-15T18:08:44.094Z,100.00
2022-09-15T18:11:47.079Z,100.00
2022-09-15T18:14:49.626Z,100.00
2022-09-15T18:17:56.424Z,100.00
2022-09-15T18:20:59.892Z,100.00
2022-09-15T18:24:02.748Z,100.00
2022-09-15T18:27:05.309Z,100.00
2022-09-15T18:30:08.821Z,100.00
2022-09-15T18:33:15.405Z,100.00
2022-09-15T18:36:18.110Z,100.00
2022-09-15T18:39:20.709Z,100.00
2022-09-15T18:42:26.227Z,100.00
2022-09-15T18:45:31.369Z,100.00
2022-09-15T18:48:34.092Z,100.00
2022-09-15T18:51:51.114Z,100.00
2022-09-15T18:54:54.713Z,100.00
2022-09-15T18:58:00.825Z,100.00
2022-09-15T19:01:04.835Z,100.00
2022-09-15T19:04:07.268Z,100.00
2022-09-15T19:07:11.453Z,100.00
2022-09-15T19:10:14.601Z,100.00
2022-09-15T19:13:17.389Z,100.00
2022-09-15T19:16:22.714Z,100.00
2022-09-15T19:19:25.837Z,100.00
2022-09-15T19:22:28.936Z,100.00
2022-09-15T19:25:32.492Z,100.00
2022-09-15T19:28:35.077Z,100.00
2022-09-15T19:31:41.851Z,100.00
2022-09-15T19:34:47.044Z,100.00
2022-09-15T19:37:49.754Z,100.00
2022-09-15T19:40:52.644Z,100.00
2022-09-15T19:43:55.388Z,100.00
2022-09-15T19:46:58.434Z,100.00
2022-09-15T19:50:01.681Z,100.00
2022-09-15T19:53:04.134Z,100.00
2022-09-15T19:56:07.629Z,100.00
2022-09-15T19:59:10.267Z,100.00
2022-09-15T20:02:13.422Z,100.00
2022-09-15T20:05:16.297Z,100.00
2022-09-15T20:08:19.309Z,100.00
2022-09-15T20:11:22.322Z,100.00
2022-09-15T20:14:24.788Z,100.00
2022-09-15T20:17:27.906Z,100.00
2022-09-15T20:20:32.302Z,100.00
2022-09-15T20:23:36.184Z,100.00
2022-09-15T20:26:38.693Z,100.00
2022-09-15T20:29:41.612Z,100.00
2022-09-15T20:32:44.044Z,100.00
2022-09-15T20:35:46.875Z,100.00
2022-09-15T20:38:50.419Z,100.00
2022-09-15T20:41:53.210Z,100.00
2022-09-15T20:44:55.681Z,100.00
2022-09-15T20:47:58.596Z,100.00
2022-09-15T20:51:15.699Z,100.00
2022-09-15T20:54:18.364Z,100.00
2022-09-15T20:57:20.901Z,100.00
2022-09-15T21:00:26.596Z,100.00
2022-09-15T21:03:30.378Z,100.00
2022-09-15T21:06:34.011Z,100.00
2022-09-15T21:09:36.505Z,100.00
2022-09-15T21:12:39.270Z,100.00
2022-09-15T21:15:41.784Z,100.00
2022-09-15T21:18:45.573Z,100.00
2022-09-15T21:21:48.244Z,100.00
2022-09-15T21:24:51.044Z,100.00
2022-09-15T21:27:53.612Z,100.00
2022-09-15T21:31:04.659Z,100.00
2022-09-15T21:34:08.032Z,100.00
2022-09-15T21:37:10.994Z,100.00
2022-09-15T21:40:13.630Z,100.00
2022-09-15T21:43:19.027Z,100.00
2022-09-15T21:46:23.653Z,100.00
2022-09-15T21:49:26.626Z,100.00
2022-09-15T21:52:30.973Z,100.00
2022-09-15T21:55:36.441Z,100.00
2022-09-15T21:58:43.040Z,100.00
2022-09-15T22:01:46.108Z,100.00
2022-09-15T22:04:49.041Z,100.00
2022-09-15T22:07:51.576Z,100.00
2022-09-15T22:10:59.762Z,100.00
2022-09-15T22:14:04.189Z,100.00
2022-09-15T22:17:09.823Z,100.00
2022-09-15T22:20:13.733Z,100.00
2022-09-15T22:23:17.639Z,100.00
2022-09-15T22:26:28.402Z,100.00
2022-09-15T22:29:31.834Z,100.00
2022-09-15T22:32:34.411Z,100.00
2022-09-15T22:35:37.239Z,100.00
2022-09-15T22:38:39.862Z,100.00
2022-09-15T22:41:42.691Z,100.00
2022-09-15T22:44:45.379Z,100.00
2022-09-15T22:47:48.275Z,100.00
2022-09-15T22:50:51.027Z,100.00
2022-09-15T22:53:56.651Z,100.00
2022-09-15T22:56:59.369Z,100.00
2022-09-15T23:00:02.434Z,100.00
2022-09-15T23:03:09.622Z,100.00
2022-09-15T23:06:12.474Z,100.00
2022-09-15T23:09:15.231Z,100.00
2022-09-15T23:12:18.064Z,100.00
2022-09-15T23:15:20.710Z,100.00
2022-09-15T23:18:23.606Z,100.00
2022-09-15T23:21:26.688Z,100.00
2022-09-15T23:24:32.066Z,100.00
2022-09-15T23:27:34.608Z,100.00
2022-09-15T23:30:38.692Z,100.00
2022-09-15T23:33:42.192Z,100.00
2022-09-15T23:36:44.951Z,100.00
2022-09-15T23:39:47.792Z,100.00
2022-09-15T23:42:50.585Z,100.00
2022-09-15T23:45:53.669Z,100.00
2022-09-15T23:48:56.535Z,100.00
2022-09-15T23:51:59.175Z,100.00
2022-09-15T23:55:02.389Z,100.00
2022-09-15T23:58:05.759Z,100.00
